INFORMACIÓN METAR y TAF
METAR FOR GMMX
ADDS - METARS form results

(1424 UTC 28 November 2022)
Data provider http://aviationweather.gov/metar/data/
 
METAR text: GMMX 281400Z 04006KT 340V100 CAVOK 26/03 Q1020 NOSIG
Conditions at: GMMX (MARRAKECH/MENARA, MA) observed 1400 UTC 28 November 2022
Temperature: 26.0°C (79°F)
Dewpoint: 3.0°C (37°F) [RH = 23%]
Pressure (altimeter): 30.12 inches Hg (1020.0 mb)
Winds: from the NE (40 degrees) at 7 MPH (6 knots; 3.1 m/s)
Visibility: 6 or more miles (10+ km)
Ceiling: ceiling and visibility are OK
Clouds: unknown
Weather: no significant weather observed at this time

METAR text: GMMX 281330Z 04006KT 360V090 CAVOK 25/05 Q1020 NOSIG
Conditions at: GMMX (MARRAKECH/MENARA, MA) observed 1330 UTC 28 November 2022
Temperature: 25.0°C (77°F)
Dewpoint: 5.0°C (41°F) [RH = 28%]
Pressure (altimeter): 30.12 inches Hg (1020.0 mb)
Winds: from the NE (40 degrees) at 7 MPH (6 knots; 3.1 m/s)
Visibility: 6 or more miles (10+ km)
Ceiling: ceiling and visibility are OK
Clouds: unknown
Weather: no significant weather observed at this time

Forecast for: GMMX (MARRAKECH/MENARA, MA)
Text: TAF GMMX 281100Z 2812/2918 32008KT CAVOK
Forecast period: 1200 UTC 28 November 2022 to 1800 UTC 29 November 2022
Forecast type: FROM: standard forecast or significant change
Winds: from the NW (320 degrees) at 9 MPH (8 knots; 4.1 m/s)
Visibility: 6 or more miles (10+ km)
Ceiling: unknown
Clouds: missing
Weather: NSW  (no significant weather)

 MAPA DE AEROPUERTO

 INFORMACIÓN DE PISTA
Pista 10 Longitud 10170 ft Ancho 148 ft
Elevación 1506 ft Umbral desplazado 918 ft Rumbo de pista 96
Pista 28 Longitud 10170 ft Ancho 148 ft
Elevación 1545 ft Umbral desplazado 0 ft Rumbo de pista 276

 FRECUANCIAS DEL AEROPUERTO
Tipo APP Nombre MARRAKECH Frecuencia 119.7 MHZ
Tipo TWR Nombre MARRAKECH Frecuencia 118.7 MHZ

 RADIO AYUDAS DEL AEROPUERTO
Tipo NDB Nombre Marrakech Frecuencia 267 KHZ
Tipo VOR-DME Nombre Marrakech Frecuencia 113300 KHZ




Powered by Virtual Airlines Manager